createdAt,value
2023-11-19T00:00:30.914Z,0.55
2023-11-19T00:02:57.641Z,0.60
2023-11-19T00:05:24.377Z,0.90
2023-11-19T00:07:51.164Z,0.60
2023-11-19T00:10:21.954Z,0.60
2023-11-19T00:12:50.183Z,0.40
2023-11-19T00:15:19.760Z,0.60
2023-11-19T00:17:48.843Z,0.50
2023-11-19T00:20:20.326Z,0.50
2023-11-19T00:22:52.695Z,0.60
2023-11-19T00:25:20.530Z,0.50
2023-11-19T00:27:47.160Z,0.40
2023-11-19T00:30:15.271Z,0.55
2023-11-19T00:32:42.710Z,0.60
2023-11-19T00:35:11.498Z,0.40
2023-11-19T00:37:38.331Z,0.38
2023-11-19T00:40:06.848Z,0.55
2023-11-19T00:42:33.630Z,0.32
2023-11-19T00:45:03.223Z,0.30
2023-11-19T00:47:29.871Z,0.43
2023-11-19T00:49:56.654Z,0.40
2023-11-19T00:52:23.387Z,0.45
2023-11-19T00:54:50.517Z,0.52
2023-11-19T00:57:17.125Z,0.55
2023-11-19T00:59:44.350Z,0.50
2023-11-19T01:02:11.117Z,0.45
2023-11-19T01:04:38.338Z,0.40
2023-11-19T01:07:06.298Z,0.30
2023-11-19T01:09:35.729Z,0.57
2023-11-19T01:12:03.622Z,0.70
2023-11-19T01:14:30.812Z,0.50
2023-11-19T01:16:57.594Z,0.55
2023-11-19T01:19:24.471Z,0.60
2023-11-19T01:21:53.885Z,0.35
2023-11-19T01:24:20.738Z,0.50
2023-11-19T01:26:50.169Z,0.45
2023-11-19T01:29:17.008Z,0.50
2023-11-19T01:31:44.538Z,0.35
2023-11-19T01:34:12.776Z,0.50
2023-11-19T01:36:40.295Z,0.45
2023-11-19T01:39:07.624Z,0.60
2023-11-19T01:41:38.004Z,0.52
2023-11-19T01:44:04.929Z,0.40
2023-11-19T01:46:34.384Z,0.70
2023-11-19T01:49:01.720Z,0.43
2023-11-19T01:51:29.222Z,0.50
2023-11-19T01:53:57.948Z,0.40
2023-11-19T01:56:26.500Z,0.50
2023-11-19T01:58:55.793Z,0.40
2023-11-19T02:01:23.151Z,0.40
2023-11-19T02:03:50.354Z,0.40
2023-11-19T02:06:17.315Z,0.60
2023-11-19T02:08:44.809Z,0.45
2023-11-19T02:11:13.215Z,0.35
2023-11-19T02:13:40.926Z,0.40
2023-11-19T02:16:09.858Z,0.40
2023-11-19T02:18:36.483Z,0.30
2023-11-19T02:21:03.170Z,0.40
2023-11-19T02:23:31.380Z,0.20
2023-11-19T02:26:15.200Z,0.20
2023-11-19T02:28:45.022Z,0.30
2023-11-19T02:31:12.679Z,0.30
2023-11-19T02:33:40.275Z,0.30
2023-11-19T02:36:08.464Z,0.50
2023-11-19T02:38:35.812Z,0.20
2023-11-19T02:41:09.632Z,0.22
2023-11-19T02:48:38.380Z,0.40
2023-11-19T02:51:06.083Z,0.40
2023-11-19T02:53:33.069Z,0.38
2023-11-19T02:56:20.058Z,0.50
2023-11-19T02:58:47.605Z,0.40
2023-11-19T03:01:24.227Z,0.50
2023-11-19T03:03:56.202Z,0.50
2023-11-19T03:06:23.058Z,0.32
2023-11-19T03:08:49.828Z,0.40
2023-11-19T03:11:17.110Z,0.57
2023-11-19T03:13:43.782Z,0.22
2023-11-19T03:16:12.669Z,0.50
2023-11-19T03:18:40.510Z,0.30
2023-11-19T03:21:09.129Z,0.40
2023-11-19T03:23:36.549Z,0.30
2023-11-19T03:26:07.045Z,0.50
2023-11-19T03:28:34.386Z,0.47
2023-11-19T03:31:01.298Z,0.50
2023-11-19T03:33:29.472Z,0.40
2023-11-19T03:35:57.941Z,0.73
2023-11-19T03:38:28.309Z,0.60
2023-11-19T03:40:55.067Z,0.50
2023-11-19T03:43:24.705Z,0.40
2023-11-19T03:45:51.506Z,0.47
2023-11-19T03:48:18.615Z,0.50
2023-11-19T03:50:45.357Z,0.40
2023-11-19T03:53:13.237Z,0.50
2023-11-19T03:55:40.019Z,0.40
2023-11-19T03:58:06.769Z,0.50
2023-11-19T04:00:33.719Z,0.60
2023-11-19T04:03:00.644Z,0.50
2023-11-19T04:05:27.345Z,0.50
2023-11-19T04:07:53.992Z,0.60
2023-11-19T04:10:21.714Z,0.57
2023-11-19T04:12:48.512Z,0.60
2023-11-19T04:15:15.779Z,0.60
2023-11-19T04:17:42.597Z,0.63
2023-11-19T04:20:13.425Z,0.65
2023-11-19T04:22:40.378Z,0.70
2023-11-19T04:25:07.526Z,0.50
2023-11-19T04:27:34.173Z,0.50
2023-11-19T04:30:02.906Z,0.60
2023-11-19T04:32:30.230Z,0.47
2023-11-19T04:34:57.196Z,0.70
2023-11-19T04:37:24.175Z,0.70
2023-11-19T04:39:50.947Z,0.50
2023-11-19T04:42:18.531Z,0.63
2023-11-19T04:44:45.732Z,0.70
2023-11-19T04:47:12.606Z,0.70
2023-11-19T04:49:45.462Z,0.65
2023-11-19T04:52:13.377Z,0.60
2023-11-19T04:54:44.999Z,0.88
2023-11-19T04:57:14.619Z,0.65
2023-11-19T04:59:42.656Z,0.60
2023-11-19T05:02:10.379Z,0.70
2023-11-19T05:04:37.821Z,0.50
2023-11-19T05:07:04.862Z,0.60
2023-11-19T05:09:32.673Z,0.70
2023-11-19T05:12:03.037Z,0.40
2023-11-19T05:14:29.813Z,0.50
2023-11-19T05:16:56.567Z,0.60
2023-11-19T05:19:23.376Z,0.60
2023-11-19T05:21:53.230Z,0.50
2023-11-19T05:24:20.344Z,0.50
2023-11-19T05:26:48.105Z,0.40
2023-11-19T05:29:14.981Z,0.47
2023-11-19T05:31:44.789Z,0.45
2023-11-19T05:34:11.929Z,0.50
2023-11-19T05:36:38.583Z,0.47
2023-11-19T05:39:06.048Z,0.40
2023-11-19T05:41:32.837Z,0.40
2023-11-19T05:43:59.518Z,0.45
2023-11-19T05:46:28.412Z,0.40
2023-11-19T05:48:55.456Z,0.50
2023-11-19T05:51:22.222Z,0.40
2023-11-19T05:53:51.397Z,0.60
2023-11-19T05:56:22.702Z,0.40
2023-11-19T05:58:50.535Z,0.40
2023-11-19T06:01:17.903Z,0.40
2023-11-19T06:03:44.922Z,0.30
2023-11-19T06:06:12.584Z,0.30
2023-11-19T06:08:39.344Z,0.32
2023-11-19T06:11:06.165Z,0.40
2023-11-19T06:13:32.970Z,0.30
2023-11-19T06:16:00.036Z,0.30
2023-11-19T06:18:27.005Z,0.25
2023-11-19T06:20:53.802Z,0.40
2023-11-19T06:23:20.719Z,0.32
2023-11-19T06:25:47.453Z,0.32
2023-11-19T06:28:14.588Z,0.30
2023-11-19T06:30:42.729Z,0.20
2023-11-19T06:33:09.676Z,0.30
2023-11-19T06:35:39.310Z,0.20
2023-11-19T06:38:06.272Z,0.30
2023-11-19T06:40:34.084Z,0.30
2023-11-19T06:43:01.242Z,0.20
2023-11-19T06:45:27.997Z,0.17
2023-11-19T06:47:54.724Z,0.20
2023-11-19T06:50:21.400Z,0.20
2023-11-19T06:52:48.384Z,0.20
2023-11-19T06:55:15.228Z,0.20
2023-11-19T06:57:41.889Z,0.22
2023-11-19T07:00:10.115Z,0.60
2023-11-19T07:02:36.982Z,0.20
2023-11-19T07:05:05.747Z,0.20
2023-11-19T07:07:34.010Z,0.30
2023-11-19T07:10:00.764Z,0.20
2023-11-19T07:12:27.924Z,0.20
2023-11-19T07:14:56.219Z,0.30
2023-11-19T07:17:22.967Z,0.30
2023-11-19T07:19:51.355Z,0.20
2023-11-19T07:22:18.578Z,0.15
2023-11-19T07:24:45.500Z,0.20
2023-11-19T07:27:12.155Z,0.30
2023-11-19T07:29:39.526Z,0.20
2023-11-19T07:32:06.776Z,0.40
2023-11-19T07:34:33.476Z,0.40
2023-11-19T07:37:04.015Z,0.30
2023-11-19T07:39:30.885Z,0.40
2023-11-19T07:41:57.690Z,0.40
2023-11-19T07:44:24.387Z,0.25
2023-11-19T07:46:51.351Z,0.40
2023-11-19T07:49:18.673Z,0.40
2023-11-19T07:51:45.408Z,0.30
2023-11-19T07:54:12.098Z,0.70
2023-11-19T07:56:38.808Z,0.47
2023-11-19T07:59:05.615Z,0.60
2023-11-19T08:01:32.578Z,0.40
2023-11-19T08:04:00.228Z,0.50
2023-11-19T08:06:27.487Z,0.30
2023-11-19T08:08:54.461Z,0.50
2023-11-19T08:11:21.461Z,0.40
2023-11-19T08:13:48.661Z,0.43
2023-11-19T08:16:16.337Z,0.40
2023-11-19T08:18:44.732Z,0.45
2023-11-19T08:21:14.828Z,0.70
2023-11-19T08:23:41.655Z,0.60
2023-11-19T08:26:08.407Z,0.68
2023-11-19T08:28:36.291Z,0.50
2023-11-19T08:31:05.803Z,0.50
2023-11-19T08:33:33.138Z,0.50
2023-11-19T08:36:00.032Z,0.50
2023-11-19T08:41:00.992Z,0.60
2023-11-19T08:43:28.347Z,0.50
2023-11-19T08:45:55.172Z,0.60
2023-11-19T08:48:22.029Z,0.65
2023-11-19T08:50:50.507Z,0.68
2023-11-19T08:53:17.208Z,0.70
2023-11-19T08:55:44.192Z,0.60
2023-11-19T08:58:11.004Z,0.60
2023-11-19T09:00:37.820Z,0.60
2023-11-19T09:03:05.201Z,0.50
2023-11-19T09:05:32.686Z,0.50
2023-11-19T09:07:59.608Z,0.50
2023-11-19T09:10:26.405Z,0.50
2023-11-19T09:12:54.234Z,0.50
2023-11-19T09:15:21.950Z,0.70
2023-11-19T09:17:48.722Z,0.60
2023-11-19T09:20:16.891Z,0.50
2023-11-19T09:22:43.909Z,0.70
2023-11-19T09:25:10.733Z,0.60
2023-11-19T09:27:37.565Z,0.50
2023-11-19T09:30:05.598Z,0.60
2023-11-19T09:32:32.481Z,0.70
2023-11-19T09:34:59.393Z,0.68
2023-11-19T09:37:26.226Z,0.50
2023-11-19T09:39:54.508Z,0.50
2023-11-19T09:42:21.760Z,0.60
2023-11-19T09:44:49.461Z,0.52
2023-11-19T09:47:18.347Z,0.52
2023-11-19T09:49:45.355Z,0.60
2023-11-19T09:52:12.388Z,0.40
2023-11-19T09:54:39.083Z,0.35
2023-11-19T09:57:08.972Z,0.40
2023-11-19T09:59:35.807Z,0.40
2023-11-19T10:02:04.263Z,0.30
2023-11-19T10:04:33.844Z,0.32
2023-11-19T10:07:00.702Z,0.40
2023-11-19T10:09:27.669Z,0.30
2023-11-19T10:11:54.397Z,0.40
2023-11-19T10:14:24.911Z,0.40
2023-11-19T10:16:51.903Z,0.30
2023-11-19T10:19:24.484Z,0.30
2023-11-19T10:21:51.277Z,0.30
2023-11-19T10:24:32.202Z,0.50
2023-11-19T10:26:58.934Z,0.30
2023-11-19T10:29:25.676Z,0.30
2023-11-19T10:31:58.561Z,0.40
2023-11-19T10:34:45.152Z,0.40
2023-11-19T10:37:30.023Z,0.40
2023-11-19T10:39:56.898Z,0.50
2023-11-19T10:42:23.946Z,0.30
2023-11-19T10:44:51.176Z,0.40
2023-11-19T10:47:37.839Z,0.20
2023-11-19T10:50:07.482Z,0.30
2023-11-19T10:52:35.036Z,0.20
2023-11-19T10:55:03.661Z,0.40
2023-11-19T10:57:34.424Z,0.30
2023-11-19T11:00:03.744Z,0.40
2023-11-19T11:02:36.273Z,0.40
2023-11-19T11:05:04.400Z,0.43
2023-11-19T11:07:39.720Z,0.30
2023-11-19T11:10:10.752Z,0.32
2023-11-19T11:12:43.482Z,0.40
2023-11-19T11:15:13.650Z,0.40
2023-11-19T11:17:40.892Z,0.45
2023-11-19T11:20:10.215Z,0.40
2023-11-19T11:22:53.220Z,0.40
2023-11-19T11:26:18.467Z,0.40
2023-11-19T11:31:54.306Z,0.50
2023-11-19T11:34:37.079Z,0.55
2023-11-19T11:37:11.504Z,0.40
2023-11-19T11:39:38.362Z,0.50
2023-11-19T11:42:23.706Z,0.60
2023-11-19T11:45:09.919Z,0.50
2023-11-19T11:47:45.911Z,0.52
2023-11-19T11:50:19.867Z,0.52
2023-11-19T11:52:58.531Z,0.40
2023-11-19T11:55:28.868Z,0.52
2023-11-19T11:57:56.511Z,0.50
2023-11-19T12:00:27.633Z,0.60
2023-11-19T12:03:00.842Z,0.52
2023-11-19T12:05:29.070Z,0.50
2023-11-19T12:08:02.678Z,0.40
2023-11-19T12:10:38.340Z,0.38
2023-11-19T12:13:10.546Z,0.40
2023-11-19T12:15:59.464Z,0.40
2023-11-19T12:18:33.584Z,0.30
2023-11-19T12:21:03.484Z,0.40
2023-11-19T12:23:31.147Z,0.55
2023-11-19T12:26:01.058Z,0.50
2023-11-19T12:28:28.757Z,0.57
2023-11-19T12:31:10.409Z,0.50
2023-11-19T12:33:37.361Z,0.50
2023-11-19T12:36:06.962Z,0.68
2023-11-19T12:38:33.813Z,0.50
2023-11-19T12:41:12.804Z,0.52
2023-11-19T12:46:24.256Z,0.63
2023-11-19T12:48:52.572Z,0.50
2023-11-19T12:51:19.469Z,0.52
2023-11-19T12:53:56.655Z,0.40
2023-11-19T12:56:26.282Z,0.43
2023-11-19T12:58:52.968Z,0.50
2023-11-19T13:01:20.951Z,0.50
2023-11-19T13:03:50.278Z,0.40
2023-11-19T13:06:17.362Z,0.40
2023-11-19T13:08:51.270Z,0.38
2023-11-19T13:11:35.321Z,0.40
2023-11-19T13:16:33.175Z,0.40
2023-11-19T13:19:01.316Z,0.30
2023-11-19T13:21:28.273Z,0.40
2023-11-19T13:23:55.049Z,0.40
2023-11-19T13:26:21.799Z,0.35
2023-11-19T13:28:48.535Z,0.40
2023-11-19T13:31:15.609Z,0.40
2023-11-19T13:33:43.108Z,0.40
2023-11-19T13:36:11.673Z,0.40
2023-11-19T13:38:42.054Z,0.40
2023-11-19T13:41:11.124Z,0.38
2023-11-19T13:43:38.063Z,0.50
2023-11-19T13:46:04.999Z,0.50
2023-11-19T13:48:31.788Z,0.30
2023-11-19T13:51:01.400Z,0.45
2023-11-19T13:53:28.200Z,0.30
2023-11-19T13:55:54.919Z,0.52
2023-11-19T13:58:21.604Z,0.50
2023-11-19T14:00:48.335Z,0.35
2023-11-19T14:03:15.228Z,0.40
2023-11-19T14:05:43.444Z,0.40
2023-11-19T14:08:20.111Z,0.40
2023-11-19T14:10:53.241Z,0.40
2023-11-19T14:13:20.084Z,0.30
2023-11-19T14:15:49.087Z,0.50
2023-11-19T14:18:17.002Z,0.47
2023-11-19T14:20:43.939Z,0.43
2023-11-19T14:23:10.706Z,0.45
2023-11-19T14:25:37.577Z,0.50
2023-11-19T14:28:06.514Z,0.80
2023-11-19T14:30:35.080Z,0.50
2023-11-19T14:33:02.219Z,0.68
2023-11-19T14:35:31.361Z,0.43
2023-11-19T14:37:58.327Z,0.45
2023-11-19T14:40:42.355Z,0.50
2023-11-19T14:43:11.948Z,0.40
2023-11-19T14:45:45.165Z,0.50
2023-11-19T14:48:16.322Z,0.50
2023-11-19T14:50:43.015Z,0.70
2023-11-19T14:53:09.689Z,0.40
2023-11-19T14:55:36.576Z,0.60
2023-11-19T14:58:08.692Z,0.60
2023-11-19T15:00:37.248Z,0.60
2023-11-19T15:03:04.172Z,0.50
2023-11-19T15:05:31.006Z,0.50
2023-11-19T15:07:57.840Z,0.52
2023-11-19T15:10:26.336Z,0.60
2023-11-19T15:12:56.190Z,0.50
2023-11-19T15:17:52.913Z,0.60
2023-11-19T15:20:20.576Z,0.65
2023-11-19T15:22:47.735Z,0.50
2023-11-19T15:25:14.719Z,0.50
2023-11-19T15:27:41.573Z,0.50
2023-11-19T15:30:11.874Z,0.52
2023-11-19T15:32:40.352Z,0.55
2023-11-19T15:35:08.764Z,0.50
2023-11-19T15:37:36.503Z,0.47
2023-11-19T15:40:06.144Z,0.50
2023-11-19T15:42:32.834Z,0.40
2023-11-19T15:44:59.502Z,0.50
2023-11-19T15:47:26.315Z,0.50
2023-11-19T15:49:53.083Z,0.40
2023-11-19T15:52:19.765Z,0.50
2023-11-19T15:54:48.781Z,0.50
2023-11-19T15:57:16.014Z,0.60
2023-11-19T15:59:42.734Z,0.60
2023-11-19T16:02:09.523Z,0.43
2023-11-19T16:04:36.428Z,0.60
2023-11-19T16:07:03.188Z,0.65
2023-11-19T16:09:29.915Z,0.47
2023-11-19T16:11:57.102Z,0.45
2023-11-19T16:14:25.709Z,0.50
2023-11-19T16:16:54.391Z,0.60
2023-11-19T16:19:21.411Z,0.60
2023-11-19T16:21:48.654Z,0.60
2023-11-19T16:24:15.529Z,0.40
2023-11-19T16:26:42.229Z,0.50
2023-11-19T16:29:09.045Z,0.52
2023-11-19T16:31:36.415Z,0.45
2023-11-19T16:34:03.462Z,0.45
2023-11-19T16:36:30.373Z,0.60
2023-11-19T16:39:16.098Z,0.50
2023-11-19T16:41:44.285Z,0.73
2023-11-19T16:44:11.734Z,0.50
2023-11-19T16:46:39.068Z,0.80
2023-11-19T16:49:06.378Z,0.70
2023-11-19T16:51:33.273Z,0.55
2023-11-19T16:54:00.051Z,0.50
2023-11-19T16:56:27.378Z,0.60
2023-11-19T16:58:54.141Z,0.65
2023-11-19T17:01:20.922Z,0.80
2023-11-19T17:03:50.461Z,0.80
2023-11-19T17:06:17.149Z,0.80
2023-11-19T17:08:45.535Z,0.60
2023-11-19T17:11:12.214Z,0.68
2023-11-19T17:13:38.969Z,0.57
2023-11-19T17:16:08.185Z,0.63
2023-11-19T17:18:35.398Z,0.60
2023-11-19T17:21:02.129Z,0.70
2023-11-19T17:23:28.865Z,0.80
2023-11-19T17:25:56.045Z,0.80
2023-11-19T17:28:22.869Z,0.60
2023-11-19T17:30:49.685Z,0.70
2023-11-19T17:33:16.513Z,0.70
2023-11-19T17:35:43.490Z,0.65
2023-11-19T17:40:39.754Z,0.70
2023-11-19T17:43:06.466Z,0.70
2023-11-19T17:45:33.324Z,0.70
2023-11-19T17:48:03.430Z,0.90
2023-11-19T17:50:30.115Z,0.98
2023-11-19T17:52:56.890Z,0.80
2023-11-19T17:55:23.592Z,0.77
2023-11-19T17:57:52.187Z,0.75
2023-11-19T18:00:19.593Z,0.65
2023-11-19T18:02:49.564Z,0.80
2023-11-19T18:05:17.312Z,0.70
2023-11-19T18:07:44.344Z,0.80
2023-11-19T18:10:12.049Z,0.73
2023-11-19T18:12:41.702Z,0.68
2023-11-19T18:15:09.546Z,0.65
2023-11-19T18:17:43.177Z,0.70
2023-11-19T18:20:15.208Z,0.80
2023-11-19T18:22:42.540Z,0.70
2023-11-19T18:25:12.691Z,0.88
2023-11-19T18:27:39.699Z,0.75
2023-11-19T18:30:11.113Z,0.70
2023-11-19T18:32:38.720Z,0.73
2023-11-19T18:35:06.555Z,0.90
2023-11-19T18:37:34.350Z,0.75
2023-11-19T18:40:02.175Z,0.70
2023-11-19T18:42:29.108Z,0.93
2023-11-19T18:44:55.797Z,0.68
2023-11-19T18:47:22.850Z,0.80
2023-11-19T18:49:50.962Z,0.88
2023-11-19T18:52:18.406Z,0.73
2023-11-19T18:54:45.073Z,0.68
2023-11-19T18:57:11.728Z,1.00
2023-11-19T18:59:38.973Z,0.80
2023-11-19T19:02:05.781Z,0.85
2023-11-19T19:04:32.711Z,0.68
2023-11-19T19:07:02.691Z,0.70
2023-11-19T19:09:30.112Z,0.70
2023-11-19T19:11:56.870Z,0.90
2023-11-19T19:14:23.552Z,0.73
2023-11-19T19:16:50.592Z,0.73
2023-11-19T19:19:17.320Z,0.73
2023-11-19T19:21:44.027Z,0.80
2023-11-19T19:24:11.173Z,0.80
2023-11-19T19:26:38.136Z,0.68
2023-11-19T19:29:05.309Z,0.80
2023-11-19T19:31:32.546Z,0.73
2023-11-19T19:33:59.781Z,0.80
2023-11-19T19:36:29.348Z,1.00
2023-11-19T19:38:56.819Z,0.80
2023-11-19T19:41:24.724Z,0.80
2023-11-19T19:43:51.671Z,0.70
2023-11-19T19:46:18.453Z,0.88
2023-11-19T19:48:45.107Z,0.60
2023-11-19T19:51:12.635Z,0.80
2023-11-19T19:53:39.453Z,1.10
2023-11-19T19:56:08.985Z,1.30
2023-11-19T19:58:36.083Z,0.77
2023-11-19T20:01:03.907Z,0.80
2023-11-19T20:03:31.026Z,0.80
2023-11-19T20:05:59.129Z,0.65
2023-11-19T20:08:26.805Z,0.70
2023-11-19T20:10:53.630Z,0.63
2023-11-19T20:13:23.949Z,0.80
2023-11-19T20:15:54.006Z,0.70
2023-11-19T20:18:21.404Z,0.77
2023-11-19T20:20:49.215Z,0.60
2023-11-19T20:23:16.176Z,0.70
2023-11-19T20:25:43.747Z,0.60
2023-11-19T20:28:10.648Z,0.63
2023-11-19T20:30:37.456Z,0.70
2023-11-19T20:33:04.690Z,0.60
2023-11-19T20:35:31.437Z,0.70
2023-11-19T20:37:58.212Z,0.60
2023-11-19T20:40:25.006Z,0.65
2023-11-19T20:42:52.562Z,0.63
2023-11-19T20:45:20.726Z,0.70
2023-11-19T20:47:50.814Z,0.70
2023-11-19T20:50:17.730Z,0.60
2023-11-19T20:52:44.723Z,0.60
2023-11-19T20:55:12.760Z,0.45
2023-11-19T20:57:39.641Z,0.68
2023-11-19T21:00:08.215Z,0.60
2023-11-19T21:02:35.164Z,0.45
2023-11-19T21:05:02.191Z,0.50
2023-11-19T21:07:28.946Z,0.60
2023-11-19T21:09:55.976Z,0.70
2023-11-19T21:12:22.784Z,0.60
2023-11-19T21:14:49.488Z,0.60
2023-11-19T21:17:19.156Z,0.47
2023-11-19T21:19:47.526Z,0.50
2023-11-19T21:22:14.504Z,0.70
2023-11-19T21:24:42.870Z,0.50
2023-11-19T21:27:09.668Z,0.50
2023-11-19T21:29:36.430Z,0.50
2023-11-19T21:32:03.248Z,0.50
2023-11-19T21:34:30.371Z,0.60
2023-11-19T21:36:57.232Z,0.40
2023-11-19T21:39:24.409Z,0.50
2023-11-19T21:41:55.562Z,0.50
2023-11-19T21:44:22.866Z,0.60
2023-11-19T21:46:49.715Z,0.40
2023-11-19T21:49:16.350Z,0.55
2023-11-19T21:51:43.486Z,0.50
2023-11-19T21:54:10.375Z,0.52
2023-11-19T21:56:37.271Z,0.47
2023-11-19T21:59:04.242Z,0.50
2023-11-19T22:01:31.009Z,0.40
2023-11-19T22:03:57.951Z,0.50
2023-11-19T22:06:24.871Z,0.50
2023-11-19T22:08:51.585Z,0.60
2023-11-19T22:11:18.645Z,0.47
2023-11-19T22:13:45.390Z,0.40
2023-11-19T22:16:12.487Z,0.50
2023-11-19T22:18:39.311Z,0.57
2023-11-19T22:21:06.078Z,0.50
2023-11-19T22:23:32.767Z,0.57
2023-11-19T22:25:59.513Z,0.50
2023-11-19T22:28:26.242Z,0.50
2023-11-19T22:30:54.100Z,0.50
2023-11-19T22:33:21.462Z,0.50
2023-11-19T22:35:48.389Z,0.55
2023-11-19T22:38:15.044Z,0.60
2023-11-19T22:40:41.883Z,0.40
2023-11-19T22:43:08.600Z,0.40
2023-11-19T22:45:35.502Z,0.60
2023-11-19T22:48:02.779Z,0.47
2023-11-19T22:50:29.474Z,0.50
2023-11-19T22:52:58.042Z,0.50
2023-11-19T22:55:24.769Z,0.40
2023-11-19T23:00:29.368Z,0.40
2023-11-19T23:02:57.799Z,0.60
2023-11-19T23:05:28.754Z,0.60
2023-11-19T23:07:55.798Z,0.43
2023-11-19T23:10:22.841Z,0.68
2023-11-19T23:12:50.007Z,0.60
2023-11-19T23:15:17.610Z,0.60
2023-11-19T23:17:45.359Z,0.50
2023-11-19T23:20:14.384Z,0.60
2023-11-19T23:22:41.702Z,0.50
2023-11-19T23:25:09.278Z,0.50
2023-11-19T23:27:37.099Z,0.57
2023-11-19T23:30:04.613Z,0.47
2023-11-19T23:32:31.580Z,0.60
2023-11-19T23:34:58.371Z,0.60
2023-11-19T23:37:26.373Z,0.82
2023-11-19T23:39:53.831Z,0.60
2023-11-19T23:42:21.454Z,0.57
2023-11-19T23:44:48.476Z,0.68
2023-11-19T23:47:15.213Z,0.40
2023-11-19T23:49:42.370Z,0.60
2023-11-19T23:52:10.792Z,0.60
2023-11-19T23:54:37.777Z,0.80
2023-11-19T23:57:05.222Z,0.57
2023-11-19T23:59:32.097Z,0.55
